createdAt,value
2023-04-25T00:02:45.974Z,100048.84
2023-04-25T00:07:48.254Z,100020.97
2023-04-25T00:12:50.703Z,100021.31
2023-04-25T00:17:54.330Z,100045.66
2023-04-25T00:22:57.268Z,100021.31
2023-04-25T00:27:59.475Z,100033.19
2023-04-25T00:33:01.787Z,100000.69
2023-04-25T00:38:04.031Z,99997.09
2023-04-25T00:43:06.924Z,99998.44
2023-04-25T00:48:09.195Z,99954.53
2023-04-25T00:53:11.450Z,99992.63
2023-04-25T00:58:13.979Z,99990.97
2023-04-25T01:03:23.293Z,99997.56
2023-04-25T01:08:26.887Z,100011.66
2023-04-25T01:13:29.228Z,100013.31
2023-04-25T01:18:31.461Z,99994.00
2023-04-25T01:23:34.651Z,100009.56
2023-04-25T01:28:37.426Z,99977.56
2023-04-25T01:33:39.756Z,99951.34
2023-04-25T01:38:42.640Z,99988.38
2023-04-25T01:43:45.182Z,99976.50
2023-04-25T01:48:47.565Z,99994.16
2023-04-25T01:53:50.457Z,99964.63
2023-04-25T01:58:53.038Z,99978.75
2023-04-25T02:03:55.724Z,100000.63
2023-04-25T02:08:58.380Z,99976.50
2023-04-25T02:14:01.311Z,99960.88
2023-04-25T02:19:03.927Z,99965.22
2023-04-25T02:24:06.646Z,99951.78
2023-04-25T02:29:08.851Z,99951.22
2023-04-25T02:34:11.192Z,99963.56
2023-04-25T02:39:13.376Z,99988.16
2023-04-25T02:44:15.563Z,99983.63
2023-04-25T02:49:17.817Z,99975.44
2023-04-25T02:54:20.081Z,99961.41
2023-04-25T02:59:22.430Z,99940.69
2023-04-25T03:04:25.294Z,99967.00
2023-04-25T03:09:27.494Z,99965.69
2023-04-25T03:14:29.747Z,99968.47
2023-04-25T03:19:32.063Z,99966.38
2023-04-25T03:24:34.252Z,99956.38
2023-04-25T03:29:36.951Z,99941.91
2023-04-25T03:34:39.309Z,99951.06
2023-04-25T03:39:41.602Z,99915.31
2023-04-25T03:44:43.866Z,99950.34
2023-04-25T03:49:46.149Z,99941.97
2023-04-25T03:54:48.445Z,99939.59
2023-04-25T03:59:50.605Z,99950.38
2023-04-25T04:04:52.901Z,99930.72
2023-04-25T04:09:55.360Z,99961.25
2023-04-25T04:14:57.486Z,99962.53
2023-04-25T04:19:59.809Z,99945.41
2023-04-25T04:25:02.012Z,99955.94
2023-04-25T04:30:04.709Z,99985.59
2023-04-25T04:35:07.720Z,99966.53
2023-04-25T04:40:10.842Z,99976.38
2023-04-25T04:45:13.733Z,99969.00
2023-04-25T04:50:16.365Z,99965.06
2023-04-25T04:55:18.487Z,99941.69
2023-04-25T05:00:22.130Z,99981.78
2023-04-25T05:05:24.280Z,99947.75
2023-04-25T05:10:27.780Z,99978.38
2023-04-25T05:15:29.965Z,99972.84
2023-04-25T05:20:32.241Z,99977.06
2023-04-25T05:25:34.688Z,99972.72
2023-04-25T05:30:36.832Z,99966.72
2023-04-25T05:35:39.030Z,99960.16
2023-04-25T05:40:41.224Z,99955.28
2023-04-25T05:45:43.570Z,99932.09
2023-04-25T05:50:45.816Z,99963.16
2023-04-25T05:55:48.676Z,99963.63
2023-04-25T06:00:51.600Z,99956.09
2023-04-25T06:05:53.909Z,99951.47
2023-04-25T06:10:56.085Z,99937.22
2023-04-25T06:15:58.291Z,99940.25
2023-04-25T06:21:00.413Z,99946.81
2023-04-25T06:26:02.493Z,99954.72
2023-04-25T06:31:04.651Z,99939.09
2023-04-25T06:36:07.051Z,99940.06
2023-04-25T06:41:09.254Z,99932.78
2023-04-25T06:46:12.344Z,99944.94
2023-04-25T06:51:17.455Z,99946.88
2023-04-25T06:56:19.742Z,99931.91
2023-04-25T07:01:21.927Z,99943.72
2023-04-25T07:06:24.228Z,99956.72
2023-04-25T07:11:26.385Z,99951.28
2023-04-25T07:16:28.960Z,99954.81
2023-04-25T07:21:32.785Z,99924.63
2023-04-25T07:26:35.125Z,99908.66
2023-04-25T07:31:37.502Z,99907.63
2023-04-25T07:36:39.739Z,99909.03
2023-04-25T07:41:41.969Z,99907.19
2023-04-25T07:46:44.190Z,99894.06
2023-04-25T07:51:46.474Z,99877.06
2023-04-25T07:56:52.795Z,99914.75
2023-04-25T08:01:55.808Z,99891.03
2023-04-25T08:06:58.039Z,99907.44
2023-04-25T08:12:00.209Z,99899.31
2023-04-25T08:17:02.921Z,99916.75
2023-04-25T08:22:06.070Z,99923.47
2023-04-25T08:27:09.156Z,99913.72
2023-04-25T08:32:11.519Z,99927.72
2023-04-25T08:37:13.824Z,99917.63
2023-04-25T08:42:17.183Z,99910.88
2023-04-25T08:47:24.183Z,99875.50
2023-04-25T08:52:32.293Z,99901.44
2023-04-25T08:57:35.207Z,99909.63
2023-04-25T09:02:37.918Z,99894.97
2023-04-25T09:07:40.280Z,99890.88
2023-04-25T09:12:42.591Z,99889.75
2023-04-25T09:17:45.846Z,99887.88
2023-04-25T09:22:48.202Z,99881.31
2023-04-25T09:27:57.495Z,99855.41
2023-04-25T09:33:07.075Z,99872.31
2023-04-25T09:38:13.761Z,99880.25
2023-04-25T09:43:23.317Z,99858.66
2023-04-25T09:48:27.234Z,99875.75
2023-04-25T09:53:30.064Z,99880.88
2023-04-25T09:58:33.337Z,99853.41
2023-04-25T10:03:37.513Z,99852.50
2023-04-25T10:08:40.847Z,99852.72
2023-04-25T10:13:44.414Z,99831.09
2023-04-25T10:18:46.608Z,99830.31
2023-04-25T10:23:51.035Z,99839.69
2023-04-25T10:29:03.466Z,99829.06
2023-04-25T10:34:06.905Z,99813.28
2023-04-25T10:39:10.427Z,99784.50
2023-04-25T10:44:12.562Z,99773.41
2023-04-25T10:49:52.318Z,99791.31
2023-04-25T10:54:55.611Z,99795.13
2023-04-25T11:00:02.575Z,99795.59
2023-04-25T11:05:05.124Z,99789.22
2023-04-25T11:10:07.925Z,99758.81
2023-04-25T11:15:10.480Z,99767.25
2023-04-25T11:20:12.920Z,99775.09
2023-04-25T11:25:17.737Z,99752.31
2023-04-25T11:30:21.394Z,99754.41
2023-04-25T11:35:24.521Z,99723.09
2023-04-25T11:40:26.872Z,99729.00
2023-04-25T11:45:30.510Z,99699.59
2023-04-25T11:50:33.411Z,99706.03
2023-04-25T11:55:35.970Z,99707.88
2023-04-25T12:00:38.397Z,99719.16
2023-04-25T12:05:42.307Z,99697.13
2023-04-25T12:10:47.296Z,99686.44
2023-04-25T12:15:50.276Z,99684.84
2023-04-25T12:20:54.274Z,99672.50
2023-04-25T12:25:57.363Z,99680.84
2023-04-25T12:31:05.734Z,99662.63
2023-04-25T12:36:13.123Z,99660.22
2023-04-25T12:41:15.327Z,99641.28
2023-04-25T12:46:17.719Z,99629.97
2023-04-25T12:51:19.955Z,99639.91
2023-04-25T12:56:24.551Z,99606.63
2023-04-25T13:01:28.142Z,99630.97
2023-04-25T13:06:31.805Z,99617.75
2023-04-25T13:11:34.055Z,99621.19
2023-04-25T13:16:36.468Z,99636.69
2023-04-25T13:21:38.820Z,99619.88
2023-04-25T13:26:41.024Z,99607.19
2023-04-25T13:31:44.014Z,99616.09
2023-04-25T13:36:46.949Z,99599.72
2023-04-25T13:41:49.182Z,99599.31
2023-04-25T13:46:51.459Z,99607.13
2023-04-25T13:51:53.762Z,99585.94
2023-04-25T13:57:00.184Z,99590.31
2023-04-25T14:02:02.822Z,99582.63
2023-04-25T14:07:06.295Z,99591.25
2023-04-25T14:12:08.639Z,99570.31
2023-04-25T14:17:11.063Z,99576.59
2023-04-25T14:22:13.354Z,99581.16
2023-04-25T14:27:15.827Z,99579.22
2023-04-25T14:32:18.129Z,99572.94
2023-04-25T14:37:20.338Z,99546.47
2023-04-25T14:42:22.539Z,99548.63
2023-04-25T14:47:27.250Z,99536.97
2023-04-25T14:52:30.102Z,99528.47
2023-04-25T14:57:33.927Z,99544.91
2023-04-25T15:02:36.606Z,99531.22
2023-04-25T15:07:40.848Z,99532.78
2023-04-25T15:12:47.680Z,99508.06
2023-04-25T15:17:50.470Z,99504.63
2023-04-25T15:22:52.699Z,99516.47
2023-04-25T15:27:56.475Z,99494.53
2023-04-25T15:32:58.891Z,99502.88
2023-04-25T15:38:01.671Z,99506.00
2023-04-25T15:43:04.251Z,99502.09
2023-04-25T15:48:06.841Z,99502.09
2023-04-25T15:53:09.042Z,99508.59
2023-04-25T15:58:12.807Z,99514.69
2023-04-25T16:03:15.811Z,99508.38
2023-04-25T16:08:18.264Z,99518.19
2023-04-25T16:13:20.461Z,99492.72
2023-04-25T16:18:22.650Z,99509.38
2023-04-25T16:23:24.937Z,99500.31
2023-04-25T16:28:27.141Z,99503.25
2023-04-25T16:33:29.485Z,99518.44
2023-04-25T16:38:32.209Z,99522.91
2023-04-25T16:43:34.857Z,99534.22
2023-04-25T16:48:37.103Z,99530.06
2023-04-25T16:53:39.294Z,99537.13
2023-04-25T16:58:41.637Z,99544.19
2023-04-25T17:03:44.537Z,99560.53
2023-04-25T17:08:46.985Z,99559.91
2023-04-25T17:13:49.275Z,99557.97
2023-04-25T17:18:51.964Z,99542.41
2023-04-25T17:23:54.620Z,99558.72
2023-04-25T17:28:57.327Z,99561.38
2023-04-25T17:33:59.629Z,99570.97
2023-04-25T17:39:02.619Z,99584.84
2023-04-25T17:44:05.035Z,99551.50
2023-04-25T17:49:07.576Z,99568.50
2023-04-25T17:54:09.873Z,99554.22
2023-04-25T17:59:12.082Z,99582.78
2023-04-25T18:04:14.673Z,99583.66
2023-04-25T18:09:23.612Z,99587.81
2023-04-25T18:14:26.465Z,99593.28
2023-04-25T18:19:28.710Z,99601.53
2023-04-25T18:24:30.922Z,99586.63
2023-04-25T18:29:34.120Z,99623.22
2023-04-25T18:34:36.629Z,99637.22
2023-04-25T18:39:38.830Z,99663.41
2023-04-25T18:44:41.472Z,99652.22
2023-04-25T18:49:43.992Z,99656.78
2023-04-25T18:54:46.432Z,99644.75
2023-04-25T18:59:49.257Z,99664.59
2023-04-25T19:04:51.442Z,99690.59
2023-04-25T19:09:54.355Z,99675.38
2023-04-25T19:14:57.064Z,99697.78
2023-04-25T19:19:59.397Z,99705.03
2023-04-25T19:25:10.053Z,99687.03
2023-04-25T19:30:13.432Z,99670.75
2023-04-25T19:35:16.118Z,99706.25
2023-04-25T19:40:20.830Z,99692.94
2023-04-25T19:45:23.108Z,99685.34
2023-04-25T19:50:25.923Z,99695.97
2023-04-25T19:55:29.056Z,99702.66
2023-04-25T20:00:31.549Z,99706.09
2023-04-25T20:05:33.778Z,99707.44
2023-04-25T20:10:36.066Z,99730.63
2023-04-25T20:15:38.582Z,99705.13
2023-04-25T20:20:40.959Z,99723.09
2023-04-25T20:25:43.971Z,99715.94
2023-04-25T20:30:46.929Z,99703.06
2023-04-25T20:35:49.701Z,99704.25
2023-04-25T20:40:52.372Z,99724.00
2023-04-25T20:45:55.263Z,99719.09
2023-04-25T20:50:59.087Z,99727.03
2023-04-25T20:56:01.367Z,99713.41
2023-04-25T21:01:04.564Z,99733.78
2023-04-25T21:06:06.918Z,99724.91
2023-04-25T21:11:10.225Z,99712.59
2023-04-25T21:16:12.560Z,99717.06
2023-04-25T21:21:14.853Z,99712.91
2023-04-25T21:26:17.019Z,99734.00
2023-04-25T21:31:19.662Z,99708.97
2023-04-25T21:36:22.513Z,99717.34
2023-04-25T21:41:26.048Z,99721.00
2023-04-25T21:46:28.330Z,99724.34
2023-04-25T21:51:32.792Z,99718.81
2023-04-25T21:56:34.997Z,99719.84
2023-04-25T22:01:37.419Z,99708.69
2023-04-25T22:06:39.702Z,99720.72
2023-04-25T22:11:43.445Z,99717.03
2023-04-25T22:16:46.531Z,99711.50
2023-04-25T22:21:49.049Z,99720.13
2023-04-25T22:26:51.674Z,99736.28
2023-04-25T22:31:54.099Z,99710.09
2023-04-25T22:36:56.476Z,99712.72
2023-04-25T22:41:58.777Z,99718.94
2023-04-25T22:47:01.855Z,99700.44
2023-04-25T22:52:04.927Z,99730.88
2023-04-25T22:57:08.569Z,99706.16
2023-04-25T23:02:11.255Z,99690.09
2023-04-25T23:07:14.022Z,99689.44
2023-04-25T23:12:19.597Z,99688.72
2023-04-25T23:17:21.871Z,99691.72
2023-04-25T23:22:24.850Z,99690.31
2023-04-25T23:27:27.266Z,99694.38
2023-04-25T23:32:29.452Z,99678.72
2023-04-25T23:37:38.566Z,99694.41
2023-04-25T23:42:42.060Z,99695.66
2023-04-25T23:47:44.476Z,99694.50
2023-04-25T23:52:46.670Z,99704.31
2023-04-25T23:57:49.165Z,99702.31
